Time;durP1;ratioP1;P1;durP2;ratioP2;P2;SDS_P1;SDS_P2;PMS_P1;PMS_P2;Temp;Humidity;BMP_temperature;BMP_pressure;BME280_temperature;BME280_humidity;BME280_pressure;Samples;Min_cycle;Max_cycle;Signal;HPM_P1;HPM_P2
2022/11/02 00:01:43;;;;;;;;;10.75;8.50;;;;;13.69;95.36;100041.34;5039265;28;45363;-84
2022/11/02 00:04:09;;;;;;;;;12.25;11.50;;;;;13.68;95.64;100033.44;5034820;28;45496;-84
2022/11/02 00:06:35;;;;;;;;;11.00;11.00;;;;;13.66;95.57;100033.50;5034454;28;45504;-83
2022/11/02 00:09:00;;;;;;;;;12.50;10.25;;;;;13.66;95.63;100041.44;5034142;28;45495;-84
2022/11/02 00:11:26;;;;;;;;;9.50;8.50;;;;;13.63;96.02;100041.56;5033691;28;45562;-84
2022/11/02 00:13:51;;;;;;;;;8.00;7.00;;;;;13.65;95.91;100046.81;5024125;28;45996;-85
2022/11/02 00:16:19;;;;;;;;;13.00;10.50;;;;;13.65;95.69;100054.75;5040656;28;45219;-85
2022/11/02 00:18:52;;;;;;;;;10.75;9.25;;;;;13.66;95.82;100049.41;5031549;28;45415;-84
2022/11/02 00:21:20;;;;;;;;;10.50;8.50;;;;;13.67;95.95;100052.91;5026397;28;45357;-84
2022/11/02 00:23:47;;;;;;;;;9.25;8.50;;;;;13.66;95.97;100049.41;5039318;28;45550;-84
2022/11/02 00:26:13;;;;;;;;;9.25;9.00;;;;;13.68;95.74;100052.84;5035087;28;45484;-84
2022/11/02 00:28:39;;;;;;;;;7.75;7.75;;;;;13.66;95.26;100051.19;5036862;28;46585;-84
2022/11/02 00:31:04;;;;;;;;;10.75;9.00;;;;;13.62;95.16;100047.78;5028372;28;45523;-84
2022/11/02 00:33:30;;;;;;;;;8.00;7.00;;;;;13.55;95.49;100049.81;5037167;28;45377;-84
2022/11/02 00:35:56;;;;;;;;;8.75;7.75;;;;;13.52;95.39;100049.06;5043883;28;45438;-85
2022/11/02 00:38:22;;;;;;;;;11.50;8.25;;;;;13.50;95.60;100054.41;5027852;28;48694;-84
2022/11/02 00:40:47;;;;;;;;;9.00;7.50;;;;;13.50;95.65;100069.44;5025209;28;45376;-84
2022/11/02 00:43:12;;;;;;;;;8.25;8.00;;;;;13.47;96.06;100066.91;5028171;28;45414;-84
2022/11/02 00:45:38;;;;;;;;;9.25;9.25;;;;;13.45;96.25;100074.91;5027229;28;45546;-84
2022/11/02 00:48:04;;;;;;;;;11.00;8.00;;;;;13.42;96.44;100077.66;5027120;28;46290;-84
2022/11/02 00:50:29;;;;;;;;;10.00;10.00;;;;;13.38;96.27;100068.13;5026807;28;45331;-84
2022/11/02 00:52:55;;;;;;;;;8.50;8.50;;;;;13.37;96.29;100068.16;5018613;28;45361;-84
2022/11/02 00:55:21;;;;;;;;;9.25;8.00;;;;;13.38;96.17;100067.25;5018663;28;45354;-84
2022/11/02 00:57:46;;;;;;;;;10.00;10.00;;;;;13.40;96.34;100065.41;5016512;28;45451;-84
2022/11/02 01:00:13;;;;;;;;;9.75;8.00;;;;;13.41;96.49;100056.50;5028738;28;45327;-84
2022/11/02 01:02:39;;;;;;;;;8.00;7.00;;;;;13.43;96.70;100066.13;5027415;28;45470;-84
2022/11/02 01:05:06;;;;;;;;;8.25;8.00;;;;;13.44;96.46;100062.56;5043286;28;45507;-84
2022/11/02 01:07:31;;;;;;;;;6.00;6.00;;;;;13.45;96.64;100052.84;5030686;28;45670;-84
2022/11/02 01:09:56;;;;;;;;;9.25;8.50;;;;;13.44;97.08;100061.72;5038606;28;45391;-84
2022/11/02 01:12:22;;;;;;;;;10.00;7.50;;;;;13.42;96.96;100059.09;5047621;28;45473;-84
2022/11/02 01:14:48;;;;;;;;;10.00;8.25;;;;;13.44;97.11;100049.31;5028976;28;45556;-84
2022/11/02 01:17:14;;;;;;;;;7.00;6.25;;;;;13.48;96.94;100052.72;5029081;28;46581;-84
2022/11/02 01:19:39;;;;;;;;;10.50;7.25;;;;;13.51;96.91;100047.31;5040217;28;45400;-84
2022/11/02 01:22:05;;;;;;;;;11.25;8.75;;;;;13.53;96.77;100056.09;5025124;28;45332;-84
2022/11/02 01:24:31;;;;;;;;;10.00;9.00;;;;;13.51;97.02;100050.84;5036443;28;45299;-84
2022/11/02 01:26:56;;;;;;;;;7.75;7.00;;;;;13.50;96.65;100041.16;5023549;28;47657;-84
2022/11/02 01:29:21;;;;;;;;;6.00;6.00;;;;;13.49;96.41;100035.91;5023816;28;45176;-84
2022/11/02 01:31:47;;;;;;;;;10.00;10.00;;;;;13.48;96.50;100043.00;5028475;28;45551;-84
2022/11/02 01:34:13;;;;;;;;;12.00;10.25;;;;;13.50;96.42;100045.59;5033474;28;45456;-84
2022/11/02 01:36:39;;;;;;;;;12.75;11.00;;;;;13.49;96.51;100047.38;5023233;28;47749;-84
2022/11/02 01:39:04;;;;;;;;;10.25;10.00;;;;;13.48;96.18;100047.44;5035660;28;45532;-84
2022/11/02 01:41:30;;;;;;;;;13.75;10.25;;;;;13.47;96.05;100035.97;5030222;28;45742;-84
2022/11/02 01:43:59;;;;;;;;;10.75;10.50;;;;;13.48;96.32;100037.69;5041342;28;45392;-84
2022/11/02 01:46:43;;;;;;;;;13.50;10.50;;;;;13.47;96.18;100030.69;5033226;28;47686;-84
2022/11/02 01:49:13;;;;;;;;;11.25;10.00;;;;;13.46;96.24;100030.72;5044018;28;45436;-84
2022/11/02 01:51:41;;;;;;;;;11.25;9.75;;;;;13.47;96.01;100029.81;5044385;28;45384;-84
2022/11/02 01:54:21;;;;;;;;;10.50;9.00;;;;;13.46;96.25;100026.28;5030575;28;45499;-84
2022/11/02 01:56:51;;;;;;;;;15.00;11.00;;;;;13.45;96.40;100039.59;5028227;28;46536;-84
2022/11/02 01:59:22;;;;;;;;;10.25;10.25;;;;;13.44;96.28;100033.44;5021287;28;45514;-85
2022/11/02 02:01:48;;;;;;;;;10.00;10.00;;;;;13.47;96.10;100032.47;5021313;28;45580;-83
2022/11/02 02:04:14;;;;;;;;;11.00;11.00;;;;;13.45;96.01;100029.88;5037087;28;45436;-84
2022/11/02 02:06:40;;;;;;;;;11.25;9.00;;;;;13.44;96.06;100021.97;5055477;28;46339;-84
2022/11/02 02:09:08;;;;;;;;;13.75;11.25;;;;;13.47;96.20;100021.88;5032112;28;45427;-84
2022/11/02 02:11:38;;;;;;;;;11.00;10.75;;;;;13.49;96.20;100023.53;5057601;28;45329;-84
2022/11/02 02:14:14;;;;;;;;;10.50;9.75;;;;;13.51;96.05;100019.06;5049820;28;45532;-83
2022/11/02 02:16:42;;;;;;;;;10.75;8.25;;;;;13.52;96.09;100012.84;5033276;28;45736;-84
2022/11/02 02:19:25;;;;;;;;;13.00;9.20;;;;;13.56;95.80;100021.53;5050494;28;45243;-84
2022/11/02 02:22:11;;;;;;;;;11.25;9.50;;;;;13.58;95.57;100020.53;5032308;28;45335;-85
2022/11/02 02:25:02;;;;;;;;;12.50;11.25;;;;;13.60;95.53;100020.47;5036663;28;45512;-84
2022/11/02 02:27:40;;;;;;;;;10.25;9.75;;;;;13.58;95.24;100017.88;5038907;28;45473;-84
2022/11/02 02:30:10;;;;;;;;;11.50;9.50;;;;;13.56;95.30;100022.41;5043564;28;45463;-83
2022/11/02 02:32:48;;;;;;;;;12.00;10.00;;;;;13.55;95.65;100030.41;5037230;28;45321;-83
2022/11/02 02:35:28;;;;;;;;;10.00;8.00;;;;;13.52;95.90;100018.13;5025986;28;45379;-83
2022/11/02 02:38:03;;;;;;;;;11.50;11.50;;;;;13.54;96.06;100016.28;5034288;28;45784;-84
2022/11/02 02:40:35;;;;;;;;;12.25;11.00;;;;;13.56;96.05;100017.09;5021060;28;45377;-83
2022/11/02 02:43:06;;;;;;;;;9.25;9.00;;;;;13.60;95.96;100009.88;5029770;28;45408;-84
2022/11/02 02:45:49;;;;;;;;;12.00;11.25;;;;;13.61;95.92;100015.13;5036402;28;45727;-83
2022/11/02 02:48:16;;;;;;;;;12.00;12.00;;;;;13.65;95.89;100018.53;5028083;28;45432;-84
2022/11/02 02:50:56;;;;;;;;;11.00;9.00;;;;;13.67;95.98;100021.13;5037818;28;45519;-84
2022/11/02 02:53:29;;;;;;;;;13.25;10.50;;;;;13.70;95.71;100021.00;5026009;28;45536;-83
2022/11/02 02:55:59;;;;;;;;;9.50;9.25;;;;;13.72;95.53;100022.69;5032571;28;45556;-83
2022/11/02 02:58:29;;;;;;;;;10.25;10.25;;;;;13.73;95.31;100013.81;5037509;28;46390;-84
2022/11/02 03:00:55;;;;;;;;;8.75;8.25;;;;;13.75;95.22;100019.88;5037407;28;45446;-83
2022/11/02 03:03:24;;;;;;;;;12.25;11.75;;;;;13.78;95.07;100021.56;5028014;28;45334;-84
2022/11/02 03:06:00;;;;;;;;;14.00;12.25;;;;;13.78;94.60;100024.19;5031081;28;45452;-83
2022/11/02 03:08:26;;;;;;;;;10.25;8.00;;;;;13.78;94.67;100021.56;5036823;28;45628;-83
2022/11/02 03:11:09;;;;;;;;;10.00;10.00;;;;;13.79;94.17;100010.91;5030800;28;45525;-84
2022/11/02 03:13:35;;;;;;;;;11.50;11.00;;;;;13.78;94.33;100017.13;5030919;28;45415;-84
2022/11/02 03:16:10;;;;;;;;;10.25;10.00;;;;;13.78;94.25;100011.81;5029717;28;45227;-85
2022/11/02 03:18:51;;;;;;;;;11.50;10.50;;;;;13.80;94.56;100017.94;5034352;28;46160;-84
2022/11/02 03:21:30;;;;;;;;;11.25;9.00;;;;;13.81;94.20;100016.13;5030258;28;45374;-84
2022/11/02 03:24:07;;;;;;;;;9.00;9.00;;;;;13.82;94.55;100016.09;5025074;28;45415;-84
2022/11/02 03:27:15;;;;;;;;;10.00;10.00;;;;;13.85;94.02;100020.41;5035369;28;45512;-84
2022/11/02 03:30:13;;;;;;;;;9.00;8.75;;;;;13.88;94.01;100022.94;5041633;28;45452;-84
2022/11/02 03:32:57;;;;;;;;;8.80;8.80;;;;;13.89;93.60;100014.06;5031946;28;45327;-84
2022/11/02 03:35:43;;;;;;;;;9.00;9.00;;;;;13.89;93.36;100014.06;5031346;28;45480;-83
2022/11/02 03:38:21;;;;;;;;;9.75;9.75;;;;;13.90;93.40;100018.44;5033238;28;45537;-83
2022/11/02 03:40:49;;;;;;;;;8.75;8.75;;;;;13.90;93.20;100021.97;5031637;28;45385;-84
2022/11/02 03:43:17;;;;;;;;;7.60;7.60;;;;;13.91;93.38;100025.44;5030814;28;45397;-84
2022/11/02 03:45:49;;;;;;;;;7.50;7.00;;;;;13.92;93.27;100025.38;5025643;28;45457;-84
2022/11/02 03:48:18;;;;;;;;;7.75;7.75;;;;;13.95;93.12;100027.94;5019689;28;45435;-84
2022/11/02 03:50:48;;;;;;;;;9.75;8.00;;;;;13.97;92.81;100020.78;5024858;28;45455;-83
2022/11/02 03:53:31;;;;;;;;;8.40;6.40;;;;;14.01;92.66;100023.31;5018875;28;45441;-84
2022/11/02 03:56:06;;;;;;;;;9.00;7.25;;;;;14.02;92.58;100028.56;5017552;28;45412;-83
2022/11/02 03:58:32;;;;;;;;;7.50;6.75;;;;;14.04;92.48;100029.38;5017323;28;45222;-83
2022/11/02 04:01:03;;;;;;;;;10.00;7.00;;;;;14.05;92.31;100023.16;5033054;28;46252;-83
2022/11/02 04:03:31;;;;;;;;;9.00;6.00;;;;;14.06;92.13;100021.34;5036758;28;45415;-84
2022/11/02 04:05:57;;;;;;;;;7.50;6.00;;;;;14.07;92.28;100023.09;5029879;28;45372;-83
2022/11/02 04:08:32;;;;;;;;;5.75;5.25;;;;;14.08;92.12;100019.47;5032176;28;45616;-83
2022/11/02 04:16:25;;;;;;;;;10.75;8.75;;;;;14.11;92.36;100022.00;5028345;28;45227;-83
2022/11/02 04:21:34;;;;;;;;;10.00;8.25;;;;;14.14;92.42;100020.09;5030772;28;45832;-83
2022/11/02 04:26:44;;;;;;;;;9.75;9.00;;;;;14.15;92.14;100031.56;5030021;28;45325;-83
2022/11/02 04:29:09;;;;;;;;;9.00;8.25;;;;;14.16;92.33;100030.66;5045636;28;45509;-84
2022/11/02 04:31:35;;;;;;;;;9.00;8.00;;;;;14.16;92.55;100038.63;5047575;28;48241;-83
2022/11/02 04:34:01;;;;;;;;;9.50;9.50;;;;;14.17;92.36;100038.56;5037100;28;45398;-84
2022/11/02 04:36:30;;;;;;;;;10.00;10.00;;;;;14.18;92.44;100040.28;5046553;28;45367;-84
2022/11/02 04:38:56;;;;;;;;;11.00;10.25;;;;;14.19;92.58;100038.50;5034430;28;45426;-84
2022/11/02 04:41:41;;;;;;;;;9.75;9.25;;;;;14.21;92.48;100040.16;5029377;28;45524;-84
2022/11/02 04:44:07;;;;;;;;;9.50;9.50;;;;;14.20;92.11;100043.75;5034528;28;45556;-84
2022/11/02 04:46:34;;;;;;;;;9.00;8.00;;;;;14.22;92.53;100039.25;5026823;28;45313;-84
2022/11/02 04:49:01;;;;;;;;;8.25;8.00;;;;;14.23;92.29;100046.28;5035433;28;45342;-83
2022/11/02 04:51:27;;;;;;;;;8.75;8.75;;;;;14.23;92.29;100040.97;5034343;28;47692;-83
2022/11/02 04:53:54;;;;;;;;;10.50;9.50;;;;;14.23;92.57;100046.28;5029475;28;45474;-84
2022/11/02 04:56:20;;;;;;;;;11.00;9.75;;;;;14.22;92.32;100044.53;5028749;28;45476;-84
2022/11/02 04:58:50;;;;;;;;;11.00;11.00;;;;;14.24;92.47;100047.97;5031921;28;45468;-83
2022/11/02 05:01:16;;;;;;;;;11.00;11.00;;;;;14.23;92.35;100053.38;5034728;28;45482;-83
2022/11/02 05:03:42;;;;;;;;;11.60;9.00;;;;;14.24;92.30;100057.75;5034127;28;45422;-84
2022/11/02 05:06:11;;;;;;;;;10.25;9.25;;;;;14.22;92.06;100056.94;5033954;28;45554;-84
2022/11/02 05:08:36;;;;;;;;;12.75;10.00;;;;;14.19;92.03;100062.38;5046808;28;45740;-84
2022/11/02 05:11:02;;;;;;;;;11.25;9.75;;;;;14.14;91.82;100057.22;5031242;28;46613;-84
2022/11/02 05:13:28;;;;;;;;;8.75;8.25;;;;;14.11;92.07;100060.00;5029752;28;45631;-84
2022/11/02 05:15:57;;;;;;;;;14.00;10.00;;;;;14.08;92.49;100060.13;5027722;28;45411;-84
2022/11/02 05:18:24;;;;;;;;;8.00;8.00;;;;;14.07;92.40;100060.22;5030953;28;45410;-83
2022/11/02 05:20:54;;;;;;;;;12.00;11.00;;;;;14.05;92.62;100067.34;5028798;28;47434;-84
2022/11/02 05:23:20;;;;;;;;;12.50;11.75;;;;;14.05;92.53;100064.69;5021887;28;45178;-84
2022/11/02 05:26:00;;;;;;;;;9.00;8.00;;;;;14.06;92.82;100069.09;5032926;28;45335;-83
2022/11/02 05:28:26;;;;;;;;;12.25;10.00;;;;;14.06;92.80;100069.94;5021487;28;45456;-84
2022/11/02 05:30:52;;;;;;;;;8.50;8.25;;;;;14.05;92.91;100078.81;5025971;28;46319;-84
2022/11/02 05:33:19;;;;;;;;;9.75;9.75;;;;;14.04;92.99;100082.41;5032753;28;45414;-83
2022/11/02 05:35:45;;;;;;;;;12.75;12.00;;;;;14.04;93.27;100078.88;5034667;28;45254;-83
2022/11/02 05:38:10;;;;;;;;;9.00;8.50;;;;;14.05;92.96;100077.97;5021329;28;45383;-83
2022/11/02 05:40:38;;;;;;;;;9.25;9.25;;;;;14.06;93.23;100079.69;5031804;28;45462;-83
2022/11/02 05:43:03;;;;;;;;;10.00;10.00;;;;;14.06;93.50;100080.56;5045263;28;45440;-83
2022/11/02 05:45:29;;;;;;;;;13.75;11.75;;;;;14.07;93.38;100078.78;5030468;28;45440;-83
2022/11/02 05:47:55;;;;;;;;;10.00;9.25;;;;;14.07;93.30;100081.41;5025393;28;45592;-83
2022/11/02 05:50:21;;;;;;;;;9.00;9.00;;;;;14.08;93.39;100077.81;5027496;28;48131;-83
2022/11/02 05:52:47;;;;;;;;;11.00;9.75;;;;;14.09;93.18;100085.72;5033440;28;45390;-83
2022/11/02 05:55:12;;;;;;;;;11.00;11.00;;;;;14.09;93.17;100087.50;5033823;28;45540;-83
2022/11/02 05:57:38;;;;;;;;;13.75;12.25;;;;;14.10;93.42;100091.88;5029882;28;45488;-82
2022/11/02 06:00:05;;;;;;;;;16.00;15.25;;;;;14.09;93.70;100095.44;5026366;28;46277;-83
2022/11/02 06:02:32;;;;;;;;;17.25;14.75;;;;;14.10;93.32;100099.84;5039588;28;45482;-83
2022/11/02 06:04:58;;;;;;;;;20.00;17.75;;;;;14.08;93.79;100096.38;5040047;28;45575;-83
2022/11/02 06:07:23;;;;;;;;;9.50;9.25;;;;;14.08;93.03;100093.72;5031848;28;45388;-83
2022/11/02 06:09:49;;;;;;;;;11.75;9.50;;;;;14.06;93.51;100093.81;5041426;28;46268;-83
2022/11/02 06:12:14;;;;;;;;;12.75;12.00;;;;;14.05;93.77;100096.53;5035567;28;45358;-84
2022/11/02 06:14:39;;;;;;;;;14.75;11.75;;;;;14.05;93.84;100099.16;5022465;28;45429;-84
2022/11/02 06:17:05;;;;;;;;;14.75;12.00;;;;;14.06;93.98;100106.19;5028266;28;45741;-83
2022/11/02 06:19:30;;;;;;;;;12.75;11.25;;;;;14.06;93.87;100106.19;5044133;28;46150;-83
2022/11/02 06:21:55;;;;;;;;;13.75;11.75;;;;;14.05;93.55;100105.34;5032045;28;45439;-83
2022/11/02 06:24:21;;;;;;;;;12.25;10.75;;;;;14.05;93.94;100105.34;5042682;28;45868;-69
2022/11/02 06:26:47;;;;;;;;;16.25;16.25;;;;;14.15;94.25;100116.44;5038669;28;45559;-71
2022/11/02 06:29:12;;;;;;;;;14.75;10.50;;;;;14.20;93.92;100111.84;5045854;28;47433;-71
2022/11/02 06:31:38;;;;;;;;;15.75;14.00;;;;;14.23;93.72;100114.38;5046518;28;45472;-72
2022/11/02 06:34:03;;;;;;;;;9.25;9.25;;;;;14.25;93.30;100121.31;5042462;28;45420;-72
2022/11/02 06:36:29;;;;;;;;;14.75;12.75;;;;;14.26;93.65;100125.69;5045171;28;45561;-72
2022/11/02 06:38:54;;;;;;;;;9.50;9.25;;;;;14.27;93.73;100127.44;5047584;28;46680;-71
2022/11/02 06:41:19;;;;;;;;;12.50;11.25;;;;;14.27;93.67;100127.44;5043483;28;45435;-72
2022/11/02 06:43:45;;;;;;;;;12.00;10.50;;;;;14.28;93.60;100131.81;5047325;28;45575;-72
2022/11/02 06:46:10;;;;;;;;;15.75;12.75;;;;;14.31;93.40;100133.47;5034598;28;45427;-72
2022/11/02 06:48:36;;;;;;;;;14.00;11.00;;;;;14.33;93.77;100140.47;5035259;28;46711;-72
2022/11/02 06:51:03;;;;;;;;;14.25;12.75;;;;;14.37;93.49;100135.91;5034626;28;45410;-71
2022/11/02 06:53:28;;;;;;;;;18.75;16.25;;;;;14.40;93.81;100140.25;5036803;28;45469;-72
2022/11/02 06:55:55;;;;;;;;;15.50;15.25;;;;;14.43;93.69;100143.63;5034421;28;45452;-72
2022/11/02 06:58:24;;;;;;;;;15.25;13.00;;;;;14.45;93.18;100140.94;5035295;28;47442;-71
2022/11/02 07:00:56;;;;;;;;;13.00;13.00;;;;;14.48;93.16;100138.16;5034412;28;45701;-71
2022/11/02 07:03:22;;;;;;;;;15.25;14.50;;;;;14.51;93.03;100140.69;5036504;28;45427;-72
2022/11/02 07:05:51;;;;;;;;;18.00;16.25;;;;;14.53;93.20;100141.50;5034660;28;45720;-71
2022/11/02 07:08:17;;;;;;;;;16.75;13.25;;;;;14.56;92.83;100144.03;5032869;28;46266;-71
2022/11/02 07:10:43;;;;;;;;;15.50;14.75;;;;;14.58;93.00;100147.47;5026382;28;45351;-72
2022/11/02 07:13:08;;;;;;;;;15.50;14.75;;;;;14.59;93.33;100147.41;5034914;28;45514;-68
2022/11/02 07:15:34;;;;;;;;;15.75;13.00;;;;;14.63;92.75;100159.63;5022486;28;45465;-71
2022/11/02 07:17:59;;;;;;;;;16.00;13.75;;;;;14.65;92.92;100154.28;5031630;28;45997;-71
2022/11/02 07:20:24;;;;;;;;;15.50;11.75;;;;;14.64;92.85;100155.19;5036689;28;45384;-71
2022/11/02 07:22:58;;;;;;;;;17.75;15.00;;;;;14.67;92.62;100160.38;5030934;28;45429;-72
2022/11/02 07:25:26;;;;;;;;;16.75;13.00;;;;;14.68;93.04;100164.78;5031587;28;45498;-72
2022/11/02 07:27:51;;;;;;;;;15.00;14.25;;;;;14.73;92.82;100153.97;5031348;28;45501;-72
2022/11/02 07:30:17;;;;;;;;;17.25;14.25;;;;;14.77;93.04;100161.72;5033712;28;45447;-72
2022/11/02 07:32:44;;;;;;;;;16.25;14.75;;;;;14.81;93.09;100155.38;5033930;28;45499;-71
2022/11/02 07:35:11;;;;;;;;;15.50;14.50;;;;;14.87;92.71;100162.25;5034401;28;45191;-71
2022/11/02 07:37:37;;;;;;;;;14.50;13.25;;;;;14.89;92.39;100158.59;5032387;28;47932;-71
2022/11/02 07:40:05;;;;;;;;;14.75;14.75;;;;;14.90;92.33;100167.44;5035055;28;45894;-71
2022/11/02 07:42:30;;;;;;;;;14.00;13.00;;;;;14.90;91.99;100157.69;5042237;28;45440;-73
2022/11/02 07:44:55;;;;;;;;;12.25;12.00;;;;;14.91;92.30;100159.38;5045030;28;45396;-71
2022/11/02 07:47:21;;;;;;;;;13.50;12.50;;;;;14.93;92.30;100160.19;5032631;28;45482;-71
2022/11/02 07:49:46;;;;;;;;;16.25;15.25;;;;;14.94;92.24;100158.38;5035674;28;45405;-71
2022/11/02 07:52:12;;;;;;;;;18.50;16.00;;;;;14.95;91.85;100168.94;5037266;28;45636;-71
2022/11/02 07:54:37;;;;;;;;;16.50;14.75;;;;;14.97;91.80;100172.41;5031936;28;45440;-71
2022/11/02 07:57:02;;;;;;;;;16.50;15.50;;;;;15.01;91.84;100171.34;5033068;28;45560;-70
2022/11/02 07:59:28;;;;;;;;;14.75;14.75;;;;;15.07;91.79;100167.59;5035289;28;45973;-70
2022/11/02 08:01:53;;;;;;;;;22.50;20.25;;;;;15.11;91.82;100161.19;5035048;28;45872;-71
2022/11/02 08:04:19;;;;;;;;;22.00;20.00;;;;;15.17;91.39;100168.06;5029488;28;45368;-71
2022/11/02 08:06:44;;;;;;;;;17.75;14.25;;;;;15.20;91.27;100165.28;5029961;28;48123;-71
2022/11/02 08:09:09;;;;;;;;;20.25;16.75;;;;;15.25;91.67;100171.25;5035777;28;45329;-71
2022/11/02 08:11:35;;;;;;;;;20.50;17.75;;;;;15.31;91.05;100171.00;5027425;28;45391;-72
2022/11/02 08:14:01;;;;;;;;;20.25;17.25;;;;;15.34;90.38;100169.06;5029990;28;45302;-71
2022/11/02 08:16:27;;;;;;;;;18.50;15.00;;;;;15.37;90.78;100170.75;5025909;28;48067;-72
2022/11/02 08:18:52;;;;;;;;;17.25;14.75;;;;;15.44;90.50;100168.66;5047921;28;45385;-71
2022/11/02 08:21:18;;;;;;;;;13.25;13.25;;;;;15.49;90.35;100167.53;5039147;28;45458;-71
2022/11/02 08:23:43;;;;;;;;;13.25;13.25;;;;;15.53;89.51;100166.50;5035167;28;45376;-71
2022/11/02 08:26:09;;;;;;;;;15.25;14.00;;;;;15.58;89.66;100163.69;5034400;28;46204;-71
2022/11/02 08:28:35;;;;;;;;;20.75;17.75;;;;;15.61;89.20;100168.81;5035178;28;45522;-71
2022/11/02 08:31:01;;;;;;;;;13.50;13.50;;;;;15.62;89.07;100171.41;5032079;28;45440;-71
2022/11/02 08:33:26;;;;;;;;;18.50;17.00;;;;;15.64;89.19;100169.56;5033110;28;45487;-72
2022/11/02 08:35:52;;;;;;;;;16.00;15.00;;;;;15.66;89.11;100164.19;5033893;28;46587;-72
2022/11/02 08:38:21;;;;;;;;;23.00;21.00;;;;;15.68;88.71;100163.19;5026186;28;45591;-71
2022/11/02 08:40:47;;;;;;;;;16.25;14.25;;;;;15.68;88.46;100162.31;5031188;28;45370;-71
2022/11/02 08:43:14;;;;;;;;;18.25;16.00;;;;;15.68;88.77;100160.53;5035451;28;45437;-72
2022/11/02 08:45:41;;;;;;;;;14.50;14.00;;;;;15.72;88.48;100163.91;5030007;28;46565;-72
2022/11/02 08:48:07;;;;;;;;;15.00;14.20;;;;;15.76;88.65;100164.63;5034346;28;45357;-71
2022/11/02 08:50:34;;;;;;;;;16.75;15.25;;;;;15.82;88.44;100167.88;5033936;28;45383;-72
2022/11/02 08:52:59;;;;;;;;;21.00;18.50;;;;;15.85;87.87;100166.88;5043655;28;45954;-72
2022/11/02 08:55:25;;;;;;;;;18.50;17.75;;;;;15.87;87.91;100160.56;5031834;28;45452;-71
2022/11/02 08:57:53;;;;;;;;;15.00;12.00;;;;;15.88;87.71;100158.78;5038442;28;45720;-71
2022/11/02 09:00:21;;;;;;;;;21.25;19.50;;;;;15.87;87.69;100152.59;5033817;28;45589;-71
2022/11/02 09:03:17;;;;;;;;;15.25;14.75;;;;;15.91;88.13;100142.69;5029165;28;45407;-72
2022/11/02 09:05:45;;;;;;;;;18.00;15.50;;;;;15.97;87.90;100150.38;5018268;28;47036;-71
2022/11/02 09:08:16;;;;;;;;;14.60;12.60;;;;;16.03;87.41;100135.00;5029071;28;45418;-70
2022/11/02 09:10:42;;;;;;;;;13.25;12.00;;;;;16.10;87.40;100132.03;5027657;28;45553;-71
2022/11/02 09:13:11;;;;;;;;;19.50;18.75;;;;;16.15;87.19;100130.91;5032093;28;45396;-72
2022/11/02 09:15:38;;;;;;;;;18.50;14.25;;;;;16.21;87.16;100130.63;5031725;28;47658;-71
2022/11/02 09:18:05;;;;;;;;;21.25;16.50;;;;;16.27;86.79;100129.44;5027892;28;45461;-72
2022/11/02 09:20:31;;;;;;;;;14.00;13.75;;;;;16.33;86.45;100134.50;5033517;28;45568;-72
2022/11/02 09:22:56;;;;;;;;;17.25;14.75;;;;;16.37;86.24;100131.63;5026882;28;45587;-71
2022/11/02 09:25:22;;;;;;;;;19.00;12.75;;;;;16.43;86.03;100133.09;5033682;28;45666;-72
2022/11/02 09:27:55;;;;;;;;;18.00;13.00;;;;;16.47;85.63;100124.03;5030704;28;45381;-71
2022/11/02 09:30:21;;;;;;;;;19.25;16.00;;;;;16.51;85.50;100122.09;5033074;28;45456;-71
2022/11/02 09:32:57;;;;;;;;;13.50;12.25;;;;;16.57;86.13;100116.50;5042887;28;45797;-72
2022/11/02 09:35:24;;;;;;;;;14.50;13.75;;;;;16.62;85.30;100117.13;5027941;28;47186;-73
2022/11/02 09:37:50;;;;;;;;;18.75;16.00;;;;;16.67;85.55;100110.66;5029903;28;45362;-71
2022/11/02 09:40:24;;;;;;;;;20.00;17.00;;;;;16.78;84.56;100117.25;5033884;28;45463;-72
2022/11/02 09:43:19;;;;;;;;;15.00;15.00;;;;;16.88;84.56;100116.75;5032563;28;45361;-72
2022/11/02 09:46:04;;;;;;;;;17.00;15.50;;;;;16.97;84.00;100110.94;5031508;28;46906;-72
2022/11/02 09:48:41;;;;;;;;;18.25;15.50;;;;;16.99;83.93;100109.06;5024023;28;45411;-70
2022/11/02 09:51:13;;;;;;;;;16.25;16.00;;;;;17.04;83.79;100108.84;5034143;28;45454;-70
2022/11/02 09:53:49;;;;;;;;;20.50;18.00;;;;;17.09;83.04;100107.63;5032564;28;45520;-70
2022/11/02 09:56:18;;;;;;;;;17.00;15.75;;;;;17.16;82.85;100099.34;5029194;28;47364;-70
2022/11/02 09:58:49;;;;;;;;;14.40;13.00;;;;;17.22;82.88;100104.38;5034673;28;45591;-70
2022/11/02 10:01:32;;;;;;;;;14.50;12.75;;;;;17.27;82.03;100099.63;5033731;28;45481;-72
2022/11/02 10:04:29;;;;;;;;;15.00;12.50;;;;;17.30;81.94;100092.34;5033625;28;45495;-70
2022/11/02 10:07:09;;;;;;;;;16.25;12.50;;;;;17.35;81.08;100086.78;5014668;28;45769;-72
2022/11/02 10:10:00;;;;;;;;;12.60;9.20;;;;;17.41;80.55;100075.81;5027121;28;45495;-72
2022/11/02 10:12:37;;;;;;;;;12.25;10.50;;;;;17.48;80.56;100076.34;5030890;28;45425;-71
2022/11/02 10:15:31;;;;;;;;;8.75;7.75;;;;;17.54;79.54;100071.53;5033654;28;45328;-72
2022/11/02 10:17:59;;;;;;;;;6.20;3.00;;;;;17.64;79.06;100067.47;5026490;28;45493;-71
2022/11/02 10:20:39;;;;;;;;;24.00;16.25;;;;;17.72;78.18;100067.94;5032414;28;45488;-71
2022/11/02 10:23:16;;;;;;;;;13.40;10.80;;;;;17.79;77.88;100073.78;5031259;28;45298;-72
2022/11/02 10:25:41;;;;;;;;;7.75;7.75;;;;;17.81;77.23;100079.03;5022845;28;45479;-71
2022/11/02 10:28:22;;;;;;;;;10.25;9.50;;;;;17.82;77.71;100070.94;5035420;28;46309;-71
2022/11/02 10:30:49;;;;;;;;;11.60;10.60;;;;;17.84;76.93;100069.06;5026903;28;45433;-71
2022/11/02 10:33:19;;;;;;;;;11.00;8.60;;;;;17.84;75.84;100063.72;5037412;28;45514;-71
2022/11/02 10:36:17;;;;;;;;;15.75;14.75;;;;;17.81;75.59;100057.69;5035078;28;45409;-72
2022/11/02 10:38:51;;;;;;;;;17.75;12.25;;;;;17.76;75.98;100061.47;5032165;28;46638;-72
2022/11/02 10:41:38;;;;;;;;;20.20;16.00;;;;;17.69;75.74;100060.09;5036610;28;45441;-73
2022/11/02 10:44:27;;;;;;;;;7.00;6.25;;;;;17.67;75.88;100053.09;5037244;28;45463;-71
2022/11/02 10:47:01;;;;;;;;;11.25;8.25;;;;;17.66;75.40;100046.03;5036715;28;45369;-71
2022/11/02 10:49:38;;;;;;;;;12.50;8.25;;;;;17.67;75.20;100047.78;5034130;28;45576;-71
2022/11/02 10:52:04;;;;;;;;;7.80;7.60;;;;;17.68;74.83;100041.50;5039171;28;45337;-71
2022/11/02 10:54:32;;;;;;;;;7.00;6.50;;;;;17.66;74.62;100038.91;5037592;28;45416;-72
2022/11/02 10:56:58;;;;;;;;;9.50;6.25;;;;;17.67;74.20;100029.09;5038330;28;45510;-72
2022/11/02 10:59:24;;;;;;;;;9.00;7.00;;;;;17.70;74.66;100029.81;5037571;28;45451;-72
2022/11/02 11:01:56;;;;;;;;;7.50;7.50;;;;;17.73;74.23;100028.78;5033673;28;45564;-72
2022/11/02 11:04:27;;;;;;;;;9.40;8.80;;;;;17.75;74.26;100025.09;5047207;28;45484;-71
2022/11/02 11:06:55;;;;;;;;;6.00;4.50;;;;;17.78;73.40;100018.69;5035523;28;45413;-72
2022/11/02 11:09:29;;;;;;;;;6.60;6.40;;;;;17.82;72.94;100014.91;5036061;28;45984;-71
2022/11/02 11:11:54;;;;;;;;;5.60;5.60;;;;;17.85;73.39;100012.09;5027795;28;45563;-71
2022/11/02 11:14:22;;;;;;;;;8.50;7.00;;;;;17.89;72.40;100012.78;5025821;28;45240;-71
2022/11/02 11:16:53;;;;;;;;;6.25;6.25;;;;;17.91;72.28;100006.44;5031248;28;45558;-72
2022/11/02 11:19:20;;;;;;;;;7.00;7.00;;;;;17.92;72.46;99999.28;5024733;28;46081;-72
2022/11/02 11:21:48;;;;;;;;;6.80;6.80;;;;;17.88;73.02;100000.38;5038882;28;45486;-73
2022/11/02 11:24:21;;;;;;;;;7.25;7.25;;;;;17.86;72.49;99994.28;5036440;28;45455;-72
2022/11/02 11:26:58;;;;;;;;;3.50;3.00;;;;;17.93;72.07;99996.50;5033997;28;45616;-72
2022/11/02 11:29:24;;;;;;;;;7.80;6.00;;;;;18.03;71.80;99995.06;5035207;28;46875;-72
2022/11/02 11:31:49;;;;;;;;;7.00;6.75;;;;;18.18;71.63;99993.31;5030483;28;45387;-71
2022/11/02 11:34:24;;;;;;;;;6.00;4.75;;;;;18.36;70.84;99983.38;5036516;28;45372;-72
2022/11/02 11:36:49;;;;;;;;;6.00;6.00;;;;;18.49;70.11;99971.03;5035747;28;45408;-72